Maersk_kyrenia — VRGM8 — position and weather

sailwx.info

Track history (hours):
 
Tides and Currents Weather Stations Pressure Air Temp Water Temp Dewpoint Dewpoint Depression Visibility Wind Speed Wind Dir Waves Ship Positions

Maersk_kyrenia

Last reported at 2015-Apr-28 11:18 UTC. Time now 2015-May-07 07:37 UTC.
Position N 31°05' E 032°19'.
Warning: this ship's position is 8 days out of date.

Length 300 m; draft 13.8 m.

MMSI: 477733600.

Date/timePositionNaut miles runAvg speedWind from/ knotsBaromVisibWave heightAir tempDewpointWater temp
2015-Apr-28 11:18N 31°05' E 032°19'7 8.4
2015-Apr-28 10:26N 31°12' E 032°20'14 0.8
2015-Apr-27 17:29N 31°26' E 032°19'0 0.0
2015-Apr-27 15:25N 31°26' E 032°19'1511.9
2015-Apr-27 14:08N 31°37' E 032°07'1519.6
2015-Apr-27 13:22N 31°47' E 031°54'1721.1
2015-Apr-27 12:33N 31°53' E 031°35'2120.8
2015-Apr-27 11:33N 31°59' E 031°11'2321.0
2015-Apr-27 10:26N 32°06' E 030°45'2721.2
2015-Apr-27 09:09N 32°15' E 030°14'1321.5
2015-Apr-27 08:33N 32°19' E 029°60'73521.0
2015-Apr-25 21:33N 36°00' E 015°53'2721.2
2015-Apr-25 20:18N 36°08' E 015°21'1620.9
2015-Apr-25 19:33N 36°12' E 015°02'2320.9
2015-Apr-25 18:25N 36°20' E 014°35'1820.9
2015-Apr-25 17:33N 36°25' E 014°13'2121.3
2015-Apr-25 16:33N 36°32' E 013°48'2821.6
2015-Apr-25 15:17N 36°41' E 013°16'4121.3
2015-Apr-25 13:21N 36°53' E 012°27'2021.5
2015-Apr-25 12:24N 37°01' E 012°03'28621.9
2015-Apr-24 23:20N 37°15' E 006°05'4 4.4
2015-Apr-24 22:33N 37°15' E 006°00'6521.5
2015-Apr-24 19:33N 37°15' E 004°39'2020.0
2015-Apr-24 18:32N 37°15' E 004°14'15221.3
2015-Apr-24 11:25N 36°55' E 001°05'4121.8
2015-Apr-24 09:31N 36°47' E 000°15'4221.2
2015-Apr-24 07:33N 36°38' W 000°36'2421.6
2015-Apr-24 06:27N 36°34' W 001°05'6721.1
2015-Apr-24 03:18N 36°19' W 002°26'1520.5
2015-Apr-24 02:33N 36°17' W 002°45'12621.1
2015-Apr-23 20:34N 35°59' W 005°20'168 5.6
2015-Apr-22 14:26N 36°26' W 008°45'6910.7
2015-Apr-22 08:00N 37°18' W 009°42'5915.8 320 / 81021.910.8 0.515.5 9.716.6
2015-Apr-22 04:15N 38°16' W 009°59'1014.1
2015-Apr-22 03:33N 38°25' W 010°02'1414.1
2015-Apr-22 02:32N 38°39' W 010°05'1414.1
2015-Apr-22 01:33N 38°53' W 010°05'1413.9
2015-Apr-22 00:33N 39°07' W 010°05'  
2015-Apr-19 20:14N 50°03' W 002°31'8016.1
2015-Apr-19 15:17N 50°24' W 000°31'3318.5
2015-Apr-19 13:29N 50°33' E 000°20'1516.8
2015-Apr-19 12:34N 50°40' E 000°42'1615.6
2015-Apr-19 11:33N 50°49' E 001°02'1515.0
2015-Apr-19 10:34N 50°57' E 001°21'1716.9
2015-Apr-19 09:33N 51°09' E 001°41'1919.1
2015-Apr-19 08:33N 51°25' E 001°58'1918.8
2015-Apr-19 07:33N 51°40' E 002°16'5415.7
2015-Apr-19 04:08N 52°04' E 003°34'915.4
2015-Apr-19 03:33N 52°03' E 003°48'1211.9
2015-Apr-19 02:34N 51°58' E 004°05'3 3.3
2015-Apr-19 01:33N 51°57' E 004°00'0 0.1
2015-Apr-19 00:31N 51°57' E 004°00'0 0.0
2015-Apr-18 23:31N 51°57' E 004°00'0 0.0
2015-Apr-18 22:31N 51°57' E 004°00'0 0.0
2015-Apr-18 21:31N 51°57' E 004°00'0 0.0
2015-Apr-18 20:31N 51°57' E 004°00'0 0.0
2015-Apr-18 19:31N 51°57' E 004°00'0 0.0
2015-Apr-18 18:31N 51°57' E 004°00'0 0.0
2015-Apr-18 17:31N 51°57' E 004°00'0 0.0
2015-Apr-18 16:34N 51°57' E 004°00'0 0.0
2015-Apr-18 15:34N 51°57' E 004°00'0 0.0
2015-Apr-18 14:33N 51°57' E 004°00'0 0.0
2015-Apr-18 13:33N 51°57' E 004°00'0 0.0
2015-Apr-18 12:33N 51°57' E 004°00'0 0.0
2015-Apr-18 11:33N 51°57' E 004°00'  
Track history (hours):
 
Tides and Currents Weather Stations Pressure Air Temp Water Temp Dewpoint Dewpoint Depression Visibility Wind Speed Wind Dir Waves Ship Positions

Maersk_kyrenia

Last reported at 2015-Apr-28 11:18 UTC. Time now 2015-May-07 07:38 UTC.
Position N 31°05' E 032°19'.
Warning: this ship's position is 8 days out of date.

Length 300 m; draft 13.8 m.

MMSI: 477733600.

Date/timePositionNaut miles runAvg speedWind from/ knotsBaromVisibWave heightAir tempDewpointWater temp
2015-Apr-28 11:18N 31°05' E 032°19'7 8.4
2015-Apr-28 10:26N 31°12' E 032°20'14 0.8
2015-Apr-27 17:29N 31°26' E 032°19'0 0.0
2015-Apr-27 15:25N 31°26' E 032°19'1511.9
2015-Apr-27 14:08N 31°37' E 032°07'1519.6
2015-Apr-27 13:22N 31°47' E 031°54'1721.1
2015-Apr-27 12:33N 31°53' E 031°35'2120.8
2015-Apr-27 11:33N 31°59' E 031°11'2321.0
2015-Apr-27 10:26N 32°06' E 030°45'2721.2
2015-Apr-27 09:09N 32°15' E 030°14'1321.5
2015-Apr-27 08:33N 32°19' E 029°60'73521.0
2015-Apr-25 21:33N 36°00' E 015°53'2721.2
2015-Apr-25 20:18N 36°08' E 015°21'1620.9
2015-Apr-25 19:33N 36°12' E 015°02'2320.9
2015-Apr-25 18:25N 36°20' E 014°35'1820.9
2015-Apr-25 17:33N 36°25' E 014°13'2121.3
2015-Apr-25 16:33N 36°32' E 013°48'2821.6
2015-Apr-25 15:17N 36°41' E 013°16'4121.3
2015-Apr-25 13:21N 36°53' E 012°27'2021.5
2015-Apr-25 12:24N 37°01' E 012°03'28621.9
2015-Apr-24 23:20N 37°15' E 006°05'4 4.4
2015-Apr-24 22:33N 37°15' E 006°00'6521.5
2015-Apr-24 19:33N 37°15' E 004°39'2020.0
2015-Apr-24 18:32N 37°15' E 004°14'15221.3
2015-Apr-24 11:25N 36°55' E 001°05'4121.8
2015-Apr-24 09:31N 36°47' E 000°15'4221.2
2015-Apr-24 07:33N 36°38' W 000°36'2421.6
2015-Apr-24 06:27N 36°34' W 001°05'6721.1
2015-Apr-24 03:18N 36°19' W 002°26'1520.5
2015-Apr-24 02:33N 36°17' W 002°45'12621.1
2015-Apr-23 20:34N 35°59' W 005°20'168 5.6
2015-Apr-22 14:26N 36°26' W 008°45'6910.7
2015-Apr-22 08:00N 37°18' W 009°42'5915.8 320 / 81021.910.8 0.515.5 9.716.6
2015-Apr-22 04:15N 38°16' W 009°59'1014.1
2015-Apr-22 03:33N 38°25' W 010°02'1414.1
2015-Apr-22 02:32N 38°39' W 010°05'1414.1
2015-Apr-22 01:33N 38°53' W 010°05'1413.9
2015-Apr-22 00:33N 39°07' W 010°05'  
2015-Apr-19 20:14N 50°03' W 002°31'8016.1
2015-Apr-19 15:17N 50°24' W 000°31'3318.5
2015-Apr-19 13:29N 50°33' E 000°20'1516.8
2015-Apr-19 12:34N 50°40' E 000°42'1615.6
2015-Apr-19 11:33N 50°49' E 001°02'1515.0
2015-Apr-19 10:34N 50°57' E 001°21'1716.9
2015-Apr-19 09:33N 51°09' E 001°41'1919.1
2015-Apr-19 08:33N 51°25' E 001°58'1918.8
2015-Apr-19 07:33N 51°40' E 002°16'5415.7
2015-Apr-19 04:08N 52°04' E 003°34'915.4
2015-Apr-19 03:33N 52°03' E 003°48'1211.9
2015-Apr-19 02:34N 51°58' E 004°05'3 3.3
2015-Apr-19 01:33N 51°57' E 004°00'0 0.1
2015-Apr-19 00:31N 51°57' E 004°00'0 0.0
2015-Apr-18 23:31N 51°57' E 004°00'0 0.0
2015-Apr-18 22:31N 51°57' E 004°00'0 0.0
2015-Apr-18 21:31N 51°57' E 004°00'0 0.0
2015-Apr-18 20:31N 51°57' E 004°00'0 0.0
2015-Apr-18 19:31N 51°57' E 004°00'0 0.0
2015-Apr-18 18:31N 51°57' E 004°00'0 0.0
2015-Apr-18 17:31N 51°57' E 004°00'0 0.0
2015-Apr-18 16:34N 51°57' E 004°00'0 0.0
2015-Apr-18 15:34N 51°57' E 004°00'0 0.0
2015-Apr-18 14:33N 51°57' E 004°00'0 0.0
2015-Apr-18 13:33N 51°57' E 004°00'0 0.0
2015-Apr-18 12:33N 51°57' E 004°00'0 0.0
2015-Apr-18 11:33N 51°57' E 004°00'  

Dump ship's entire track history